Time,TemperatureF,DewpointF,PressureIn,WindDirection,WindDirectionDegrees,WindSpeedMPH,WindSpeedGustMPH,Humidity,HourlyPrecipIn,Conditions,Clouds,dailyrainin,SoftwareType,DateUTC
2013-06-12 00:03:00,52.8,46.5,29.90,NW,305,7.0,7.0,79,0.00,,,0.00,Wunderground v.1.15,2013-06-12 07:03:00,
2013-06-12 00:08:00,52.4,46.4,29.90,West,275,7.0,7.0,80,0.00,,,0.00,Wunderground v.1.15,2013-06-12 07:08:00,
2013-06-12 00:18:00,52.2,46.5,29.90,NW,307,8.0,8.0,81,0.00,,,0.00,Wunderground v.1.15,2013-06-12 07:18:00,
2013-06-12 00:28:00,51.8,46.5,29.90,NW,308,8.0,10.0,82,0.00,,,0.00,Wunderground v.1.15,2013-06-12 07:28:00,
2013-06-12 00:38:00,51.7,46.4,29.90,NW,312,7.0,11.0,82,0.00,,,0.00,Wunderground v.1.15,2013-06-12 07:38:00,
2013-06-12 00:48:00,51.4,46.1,29.90,NW,310,7.0,8.0,82,0.00,,,0.00,Wunderground v.1.15,2013-06-12 07:48:00,
2013-06-12 00:58:00,51.4,46.4,29.90,WNW,294,8.0,8.0,83,0.00,,,0.00,Wunderground v.1.15,2013-06-12 07:58:00,
2013-06-12 01:03:00,51.4,46.1,29.90,WNW,302,7.0,8.0,82,0.00,,,0.00,Wunderground v.1.15,2013-06-12 08:03:00,
2013-06-12 01:13:00,51.5,45.5,29.90,WNW,289,7.0,7.0,80,0.00,,,0.00,Wunderground v.1.15,2013-06-12 08:13:00,
2013-06-12 01:18:00,51.4,45.8,29.90,WNW,283,7.0,7.0,81,0.00,,,0.00,Wunderground v.1.15,2013-06-12 08:18:00,
2013-06-12 01:28:00,51.2,45.6,29.90,NW,314,6.0,6.0,81,0.00,,,0.00,Wunderground v.1.15,2013-06-12 08:28:00,
2013-06-12 01:38:00,51.6,45.6,29.90,WNW,290,6.0,7.0,80,0.00,,,0.00,Wunderground v.1.15,2013-06-12 08:38:00,
2013-06-12 01:43:00,51.2,45.6,29.90,NW,307,7.0,7.0,81,0.00,,,0.00,Wunderground v.1.15,2013-06-12 08:43:00,
2013-06-12 01:53:00,51.6,45.0,29.90,WNW,285,7.0,9.0,78,0.00,,,0.00,Wunderground v.1.15,2013-06-12 08:53:00,
2013-06-12 01:58:00,51.4,45.4,29.90,WNW,300,7.0,9.0,80,0.00,,,0.00,Wunderground v.1.15,2013-06-12 08:58:00,
2013-06-12 02:08:00,50.0,45.4,29.91,WNW,286,10.0,10.0,84,0.00,,,0.00,Wunderground v.1.15,2013-06-12 09:08:00,
2013-06-12 02:18:00,49.3,45.0,29.90,WNW,284,10.0,10.0,85,0.00,,,0.00,Wunderground v.1.15,2013-06-12 09:18:00,
2013-06-12 02:23:00,49.1,44.8,29.90,WNW,290,9.0,10.0,85,0.00,,,0.00,Wunderground v.1.15,2013-06-12 09:23:00,
2013-06-12 02:33:00,48.8,44.8,29.90,WNW,282,9.0,9.0,86,0.00,,,0.00,Wunderground v.1.15,2013-06-12 09:33:00,
2013-06-12 02:38:00,48.7,44.7,29.90,WNW,296,8.0,8.0,86,0.00,,,0.00,Wunderground v.1.15,2013-06-12 09:38:00,
2013-06-12 02:48:00,48.6,44.6,29.91,WNW,292,8.0,8.0,86,0.00,,,0.00,Wunderground v.1.15,2013-06-12 09:48:00,
2013-06-12 02:58:00,48.3,44.3,29.90,WNW,297,9.0,10.0,86,0.00,,,0.00,Wunderground v.1.15,2013-06-12 09:58:00,
2013-06-12 03:08:00,48.2,44.5,29.90,WNW,284,9.0,11.0,87,0.00,,,0.00,Wunderground v.1.15,2013-06-12 10:08:00,
2013-06-12 03:13:00,48.1,44.1,29.90,West,277,9.0,11.0,86,0.00,,,0.00,Wunderground v.1.15,2013-06-12 10:13:00,
2013-06-12 03:18:00,48.0,44.3,29.90,WNW,296,8.0,8.0,87,0.00,,,0.00,Wunderground v.1.15,2013-06-12 10:18:00,
2013-06-12 03:28:00,47.9,44.2,29.90,WNW,298,8.0,10.0,87,0.00,,,0.00,Wunderground v.1.15,2013-06-12 10:28:00,
2013-06-12 03:38:00,47.8,44.1,29.90,WNW,292,8.0,8.0,87,0.00,,,0.00,Wunderground v.1.15,2013-06-12 10:38:00,
2013-06-12 03:43:00,48.0,44.3,29.90,WNW,298,8.0,8.0,87,0.00,,,0.00,Wunderground v.1.15,2013-06-12 10:43:00,
2013-06-12 03:48:00,48.0,44.6,29.90,WNW,295,7.0,10.0,88,0.00,,,0.00,Wunderground v.1.15,2013-06-12 10:48:00,
2013-06-12 03:58:00,48.3,44.6,29.91,WNW,291,8.0,8.0,87,0.00,,,0.00,Wunderground v.1.15,2013-06-12 10:58:00,
2013-06-12 04:08:00,48.7,44.7,29.91,NW,308,7.0,7.0,86,0.00,,,0.00,Wunderground v.1.15,2013-06-12 11:08:00,
2013-06-12 04:18:00,48.6,44.6,29.91,WNW,299,8.0,8.0,86,0.00,,,0.00,Wunderground v.1.15,2013-06-12 11:18:00,
2013-06-12 04:28:00,48.0,44.3,29.91,NW,319,7.0,7.0,87,0.00,,,0.00,Wunderground v.1.15,2013-06-12 11:28:00,
2013-06-12 04:33:00,47.8,44.4,29.91,WNW,294,6.0,7.0,88,0.00,,,0.00,Wunderground v.1.15,2013-06-12 11:33:00,
2013-06-12 04:43:00,47.3,43.9,29.91,WNW,302,5.0,6.0,88,0.00,,,0.00,Wunderground v.1.15,2013-06-12 11:43:00,
2013-06-12 04:53:00,46.8,43.7,29.91,West,279,2.0,4.0,89,0.00,,,0.00,Wunderground v.1.15,2013-06-12 11:53:00,
2013-06-12 04:58:00,46.6,43.8,29.91,West,279,3.0,6.0,90,0.00,,,0.00,Wunderground v.1.15,2013-06-12 11:58:00,
2013-06-12 05:08:00,46.7,43.9,29.92,West,279,7.0,7.0,90,0.00,,,0.00,Wunderground v.1.15,2013-06-12 12:08:00,
2013-06-12 05:13:00,46.9,44.1,29.92,WNW,284,7.0,7.0,90,0.00,,,0.00,Wunderground v.1.15,2013-06-12 12:13:00,
2013-06-12 05:23:00,46.9,44.1,29.92,WNW,285,8.0,8.0,90,0.00,,,0.00,Wunderground v.1.15,2013-06-12 12:23:00,
2013-06-12 18:28:00,60.4,46.4,29.92,West,270,18.0,18.0,60,0.00,,,0.00,Wunderground v.1.15,2013-06-13 01:28:00,
2013-06-12 18:58:00,59.5,45.6,29.93,WNW,296,19.0,25.0,60,0.00,,,0.00,Wunderground v.1.15,2013-06-13 01:58:00,
2013-06-12 19:28:00,57.8,45.3,29.93,WNW,286,17.0,18.0,63,0.00,,,0.00,Wunderground v.1.15,2013-06-13 02:28:00,
2013-06-12 19:58:00,56.0,45.6,29.94,NNW,333,15.0,15.0,68,0.00,,,0.00,Wunderground v.1.15,2013-06-13 02:58:00,
2013-06-12 20:28:00,54.5,45.3,29.94,NNW,327,17.0,17.0,71,0.00,,,0.00,Wunderground v.1.15,2013-06-13 03:28:00,
2013-06-12 20:58:00,53.5,45.1,29.95,NW,307,16.0,21.0,73,0.00,,,0.00,Wunderground v.1.15,2013-06-13 03:58:00,
2013-06-12 21:28:00,53.0,44.6,29.96,NW,304,14.0,15.0,73,0.00,,,0.00,Wunderground v.1.15,2013-06-13 04:28:00,
2013-06-12 21:58:00,52.2,44.5,29.97,WNW,292,14.0,14.0,75,0.00,,,0.00,Wunderground v.1.15,2013-06-13 04:58:00,
2013-06-12 22:28:00,51.7,44.0,29.98,WNW,296,10.0,10.0,75,0.00,,,0.00,Wunderground v.1.15,2013-06-13 05:28:00,
2013-06-12 22:58:00,51.1,43.8,29.97,NW,320,10.0,10.0,76,0.00,,,0.00,Wunderground v.1.15,2013-06-13 05:58:00,
2013-06-12 23:28:00,51.6,43.2,29.97,WNW,292,10.0,15.0,73,0.00,,,0.00,Wunderground v.1.15,2013-06-13 06:28:00,
2013-06-12 23:58:00,51.6,42.9,29.98,NW,311,9.0,9.0,72,0.00,,,0.00,Wunderground v.1.15,2013-06-13 06:58:00,